sensor_id;sensor_type;location;lat;lon;timestamp;P1;durP1;ratioP1;P2;durP2;ratioP2
42714;SDS011;28351;51.480;5.706;2023-09-19T00:01:39;16.23;;;3.20;;
42714;SDS011;28351;51.480;5.706;2023-09-19T00:04:10;20.45;;;2.75;;
42714;SDS011;28351;51.480;5.706;2023-09-19T00:06:39;20.15;;;3.92;;
42714;SDS011;28351;51.480;5.706;2023-09-19T00:09:05;13.50;;;2.90;;
42714;SDS011;28351;51.480;5.706;2023-09-19T00:11:35;24.08;;;3.28;;
42714;SDS011;28351;51.480;5.706;2023-09-19T00:14:01;20.05;;;3.30;;
42714;SDS011;28351;51.480;5.706;2023-09-19T00:16:27;21.40;;;3.72;;
42714;SDS011;28351;51.480;5.706;2023-09-19T00:18:53;23.85;;;3.15;;
42714;SDS011;28351;51.480;5.706;2023-09-19T00:21:18;20.02;;;3.00;;
42714;SDS011;28351;51.480;5.706;2023-09-19T00:23:44;19.23;;;3.65;;
42714;SDS011;28351;51.480;5.706;2023-09-19T00:26:10;15.82;;;3.40;;
42714;SDS011;28351;51.480;5.706;2023-09-19T00:28:36;16.77;;;3.28;;
42714;SDS011;28351;51.480;5.706;2023-09-19T00:31:01;17.02;;;3.10;;
42714;SDS011;28351;51.480;5.706;2023-09-19T00:33:27;13.85;;;2.88;;
42714;SDS011;28351;51.480;5.706;2023-09-19T00:35:54;19.38;;;2.92;;
42714;SDS011;28351;51.480;5.706;2023-09-19T00:38:22;20.77;;;3.33;;
42714;SDS011;28351;51.480;5.706;2023-09-19T00:40:51;20.40;;;3.03;;
42714;SDS011;28351;51.480;5.706;2023-09-19T00:43:18;11.73;;;2.95;;
42714;SDS011;28351;51.480;5.706;2023-09-19T00:45:49;20.25;;;3.40;;
42714;SDS011;28351;51.480;5.706;2023-09-19T00:48:16;15.55;;;2.75;;
42714;SDS011;28351;51.480;5.706;2023-09-19T00:50:42;19.40;;;3.17;;
42714;SDS011;28351;51.480;5.706;2023-09-19T00:53:09;18.83;;;2.97;;
42714;SDS011;28351;51.480;5.706;2023-09-19T00:55:38;18.35;;;3.00;;
42714;SDS011;28351;51.480;5.706;2023-09-19T00:58:05;19.52;;;2.97;;
42714;SDS011;28351;51.480;5.706;2023-09-19T01:00:32;13.52;;;2.20;;
42714;SDS011;28351;51.480;5.706;2023-09-19T01:02:59;12.23;;;2.88;;
42714;SDS011;28351;51.480;5.706;2023-09-19T01:05:26;9.63;;;2.78;;
42714;SDS011;28351;51.480;5.706;2023-09-19T01:07:52;11.98;;;2.70;;
42714;SDS011;28351;51.480;5.706;2023-09-19T01:10:19;17.00;;;3.00;;
42714;SDS011;28351;51.480;5.706;2023-09-19T01:21:05;15.52;;;3.05;;
42714;SDS011;28351;51.480;5.706;2023-09-19T01:29:44;19.45;;;2.95;;
42714;SDS011;28351;51.480;5.706;2023-09-19T01:32:12;15.70;;;2.95;;
42714;SDS011;28351;51.480;5.706;2023-09-19T01:34:51;10.63;;;2.50;;
42714;SDS011;28351;51.480;5.706;2023-09-19T01:37:28;14.02;;;2.70;;
42714;SDS011;28351;51.480;5.706;2023-09-19T01:39:58;27.60;;;3.50;;
42714;SDS011;28351;51.480;5.706;2023-09-19T01:51:00;18.80;;;2.85;;
42714;SDS011;28351;51.480;5.706;2023-09-19T01:53:35;15.95;;;3.28;;
42714;SDS011;28351;51.480;5.706;2023-09-19T01:56:05;15.48;;;2.90;;
42714;SDS011;28351;51.480;5.706;2023-09-19T01:58:38;15.35;;;3.08;;
42714;SDS011;28351;51.480;5.706;2023-09-19T02:01:10;15.10;;;3.22;;
42714;SDS011;28351;51.480;5.706;2023-09-19T02:03:40;11.23;;;2.22;;
42714;SDS011;28351;51.480;5.706;2023-09-19T02:06:06;16.77;;;2.92;;
42714;SDS011;28351;51.480;5.706;2023-09-19T02:08:36;18.42;;;2.70;;
42714;SDS011;28351;51.480;5.706;2023-09-19T02:11:02;13.55;;;2.80;;
42714;SDS011;28351;51.480;5.706;2023-09-19T02:13:28;18.20;;;3.08;;
42714;SDS011;28351;51.480;5.706;2023-09-19T02:15:55;11.90;;;2.63;;
42714;SDS011;28351;51.480;5.706;2023-09-19T02:18:21;12.20;;;2.58;;
42714;SDS011;28351;51.480;5.706;2023-09-19T02:20:47;10.13;;;2.40;;
42714;SDS011;28351;51.480;5.706;2023-09-19T02:23:12;12.40;;;2.72;;
42714;SDS011;28351;51.480;5.706;2023-09-19T02:25:38;14.45;;;2.80;;
42714;SDS011;28351;51.480;5.706;2023-09-19T02:28:05;13.38;;;2.42;;
42714;SDS011;28351;51.480;5.706;2023-09-19T02:30:32;14.25;;;2.20;;
42714;SDS011;28351;51.480;5.706;2023-09-19T02:32:58;14.13;;;2.50;;
42714;SDS011;28351;51.480;5.706;2023-09-19T02:35:26;13.45;;;2.65;;
42714;SDS011;28351;51.480;5.706;2023-09-19T02:37:53;11.95;;;2.72;;
42714;SDS011;28351;51.480;5.706;2023-09-19T02:40:18;13.32;;;3.47;;
42714;SDS011;28351;51.480;5.706;2023-09-19T02:42:45;11.90;;;2.38;;
42714;SDS011;28351;51.480;5.706;2023-09-19T02:45:12;15.05;;;2.67;;
42714;SDS011;28351;51.480;5.706;2023-09-19T02:47:39;12.27;;;2.40;;
42714;SDS011;28351;51.480;5.706;2023-09-19T02:50:05;12.70;;;2.40;;
42714;SDS011;28351;51.480;5.706;2023-09-19T02:52:31;11.75;;;2.30;;
42714;SDS011;28351;51.480;5.706;2023-09-19T02:54:57;12.90;;;2.78;;
42714;SDS011;28351;51.480;5.706;2023-09-19T02:57:22;15.98;;;2.58;;
42714;SDS011;28351;51.480;5.706;2023-09-19T02:59:49;11.60;;;2.10;;
42714;SDS011;28351;51.480;5.706;2023-09-19T03:02:14;21.63;;;2.33;;
42714;SDS011;28351;51.480;5.706;2023-09-19T03:04:40;17.23;;;2.90;;
42714;SDS011;28351;51.480;5.706;2023-09-19T03:07:06;10.10;;;1.98;;
42714;SDS011;28351;51.480;5.706;2023-09-19T03:09:33;16.08;;;3.15;;
42714;SDS011;28351;51.480;5.706;2023-09-19T03:11:58;14.38;;;2.63;;
42714;SDS011;28351;51.480;5.706;2023-09-19T03:14:24;17.60;;;3.15;;
42714;SDS011;28351;51.480;5.706;2023-09-19T03:16:50;14.52;;;2.63;;
42714;SDS011;28351;51.480;5.706;2023-09-19T03:19:17;15.02;;;2.45;;
42714;SDS011;28351;51.480;5.706;2023-09-19T03:21:45;9.00;;;2.33;;
42714;SDS011;28351;51.480;5.706;2023-09-19T03:24:12;13.82;;;2.25;;
42714;SDS011;28351;51.480;5.706;2023-09-19T03:26:37;11.80;;;1.95;;
42714;SDS011;28351;51.480;5.706;2023-09-19T03:29:03;15.60;;;2.88;;
42714;SDS011;28351;51.480;5.706;2023-09-19T03:31:32;11.50;;;2.53;;
42714;SDS011;28351;51.480;5.706;2023-09-19T03:33:58;18.55;;;2.45;;
42714;SDS011;28351;51.480;5.706;2023-09-19T03:36:23;14.68;;;2.33;;
42714;SDS011;28351;51.480;5.706;2023-09-19T03:38:49;12.80;;;2.65;;
42714;SDS011;28351;51.480;5.706;2023-09-19T03:41:15;11.82;;;2.17;;
42714;SDS011;28351;51.480;5.706;2023-09-19T03:43:42;16.20;;;2.55;;
42714;SDS011;28351;51.480;5.706;2023-09-19T03:46:08;12.43;;;2.70;;
42714;SDS011;28351;51.480;5.706;2023-09-19T03:48:33;11.85;;;3.40;;
42714;SDS011;28351;51.480;5.706;2023-09-19T03:50:59;20.58;;;3.90;;
42714;SDS011;28351;51.480;5.706;2023-09-19T03:53:25;17.23;;;3.13;;
42714;SDS011;28351;51.480;5.706;2023-09-19T03:55:51;12.55;;;2.70;;
42714;SDS011;28351;51.480;5.706;2023-09-19T03:58:16;18.85;;;3.30;;
42714;SDS011;28351;51.480;5.706;2023-09-19T04:00:42;13.55;;;2.78;;
42714;SDS011;28351;51.480;5.706;2023-09-19T04:03:07;18.25;;;2.90;;
42714;SDS011;28351;51.480;5.706;2023-09-19T04:05:33;17.73;;;3.22;;
42714;SDS011;28351;51.480;5.706;2023-09-19T04:07:59;14.25;;;2.38;;
42714;SDS011;28351;51.480;5.706;2023-09-19T04:10:25;14.93;;;2.55;;
42714;SDS011;28351;51.480;5.706;2023-09-19T04:12:53;15.57;;;2.85;;
42714;SDS011;28351;51.480;5.706;2023-09-19T04:15:20;14.20;;;2.95;;
42714;SDS011;28351;51.480;5.706;2023-09-19T04:17:49;13.93;;;2.85;;
42714;SDS011;28351;51.480;5.706;2023-09-19T04:20:16;11.48;;;2.70;;
42714;SDS011;28351;51.480;5.706;2023-09-19T04:22:45;18.10;;;2.80;;
42714;SDS011;28351;51.480;5.706;2023-09-19T04:25:11;16.10;;;3.25;;
42714;SDS011;28351;51.480;5.706;2023-09-19T04:27:37;9.93;;;2.75;;
42714;SDS011;28351;51.480;5.706;2023-09-19T04:30:03;15.55;;;2.47;;
42714;SDS011;28351;51.480;5.706;2023-09-19T04:32:35;10.40;;;2.10;;
42714;SDS011;28351;51.480;5.706;2023-09-19T04:35:04;13.50;;;3.15;;
42714;SDS011;28351;51.480;5.706;2023-09-19T04:37:33;14.80;;;2.50;;
42714;SDS011;28351;51.480;5.706;2023-09-19T04:39:58;11.43;;;2.78;;
42714;SDS011;28351;51.480;5.706;2023-09-19T04:42:24;18.05;;;3.83;;
42714;SDS011;28351;51.480;5.706;2023-09-19T04:44:50;12.15;;;2.35;;
42714;SDS011;28351;51.480;5.706;2023-09-19T04:47:17;18.42;;;2.70;;
42714;SDS011;28351;51.480;5.706;2023-09-19T04:49:43;20.90;;;2.60;;
42714;SDS011;28351;51.480;5.706;2023-09-19T04:52:09;13.55;;;2.30;;
42714;SDS011;28351;51.480;5.706;2023-09-19T04:54:34;13.30;;;2.70;;
42714;SDS011;28351;51.480;5.706;2023-09-19T04:57:00;15.35;;;2.50;;
42714;SDS011;28351;51.480;5.706;2023-09-19T04:59:26;13.38;;;2.92;;
42714;SDS011;28351;51.480;5.706;2023-09-19T05:01:53;14.27;;;3.40;;
42714;SDS011;28351;51.480;5.706;2023-09-19T05:04:19;10.02;;;2.90;;
42714;SDS011;28351;51.480;5.706;2023-09-19T05:06:44;17.30;;;2.80;;
42714;SDS011;28351;51.480;5.706;2023-09-19T05:09:10;13.13;;;3.00;;
42714;SDS011;28351;51.480;5.706;2023-09-19T05:11:35;11.13;;;2.28;;
42714;SDS011;28351;51.480;5.706;2023-09-19T05:14:03;17.10;;;2.50;;
42714;SDS011;28351;51.480;5.706;2023-09-19T05:16:29;14.05;;;2.30;;
42714;SDS011;28351;51.480;5.706;2023-09-19T05:18:56;14.45;;;2.75;;
42714;SDS011;28351;51.480;5.706;2023-09-19T05:21:25;19.50;;;3.40;;
42714;SDS011;28351;51.480;5.706;2023-09-19T05:23:55;15.55;;;2.88;;
42714;SDS011;28351;51.480;5.706;2023-09-19T05:26:21;10.02;;;2.03;;
42714;SDS011;28351;51.480;5.706;2023-09-19T05:28:47;15.18;;;3.08;;
42714;SDS011;28351;51.480;5.706;2023-09-19T05:31:15;13.38;;;2.55;;
42714;SDS011;28351;51.480;5.706;2023-09-19T05:33:41;12.75;;;2.67;;
42714;SDS011;28351;51.480;5.706;2023-09-19T05:36:07;9.57;;;2.15;;
42714;SDS011;28351;51.480;5.706;2023-09-19T05:38:35;18.83;;;2.38;;
42714;SDS011;28351;51.480;5.706;2023-09-19T05:41:02;16.73;;;3.17;;
42714;SDS011;28351;51.480;5.706;2023-09-19T05:43:27;17.08;;;2.78;;
42714;SDS011;28351;51.480;5.706;2023-09-19T05:45:53;13.52;;;2.40;;
42714;SDS011;28351;51.480;5.706;2023-09-19T05:48:21;18.88;;;3.35;;
42714;SDS011;28351;51.480;5.706;2023-09-19T05:50:47;15.15;;;2.63;;
42714;SDS011;28351;51.480;5.706;2023-09-19T05:53:13;15.20;;;2.60;;
42714;SDS011;28351;51.480;5.706;2023-09-19T05:55:40;16.70;;;3.38;;
42714;SDS011;28351;51.480;5.706;2023-09-19T05:58:06;17.30;;;3.55;;
42714;SDS011;28351;51.480;5.706;2023-09-19T06:00:32;12.88;;;2.53;;
42714;SDS011;28351;51.480;5.706;2023-09-19T06:02:58;13.55;;;2.63;;
42714;SDS011;28351;51.480;5.706;2023-09-19T06:05:25;14.80;;;2.45;;
42714;SDS011;28351;51.480;5.706;2023-09-19T06:07:57;14.77;;;2.80;;
42714;SDS011;28351;51.480;5.706;2023-09-19T06:10:32;14.60;;;2.53;;
42714;SDS011;28351;51.480;5.706;2023-09-19T06:12:59;18.38;;;2.85;;
42714;SDS011;28351;51.480;5.706;2023-09-19T06:15:29;15.95;;;3.30;;
42714;SDS011;28351;51.480;5.706;2023-09-19T06:17:57;11.93;;;2.50;;
42714;SDS011;28351;51.480;5.706;2023-09-19T06:20:24;16.33;;;2.80;;
42714;SDS011;28351;51.480;5.706;2023-09-19T06:22:51;11.02;;;2.88;;
42714;SDS011;28351;51.480;5.706;2023-09-19T06:25:18;14.82;;;3.08;;
42714;SDS011;28351;51.480;5.706;2023-09-19T06:27:50;12.52;;;3.00;;
42714;SDS011;28351;51.480;5.706;2023-09-19T06:30:19;20.00;;;2.75;;
42714;SDS011;28351;51.480;5.706;2023-09-19T06:32:45;13.95;;;2.90;;
42714;SDS011;28351;51.480;5.706;2023-09-19T06:35:14;20.73;;;3.30;;
42714;SDS011;28351;51.480;5.706;2023-09-19T06:37:41;16.20;;;3.20;;
42714;SDS011;28351;51.480;5.706;2023-09-19T06:42:38;14.13;;;3.53;;
42714;SDS011;28351;51.480;5.706;2023-09-19T06:45:09;19.30;;;3.35;;
42714;SDS011;28351;51.480;5.706;2023-09-19T06:47:38;15.20;;;2.92;;
42714;SDS011;28351;51.480;5.706;2023-09-19T06:50:04;15.57;;;3.00;;
42714;SDS011;28351;51.480;5.706;2023-09-19T06:52:31;12.02;;;2.80;;
42714;SDS011;28351;51.480;5.706;2023-09-19T06:54:58;18.25;;;2.78;;
42714;SDS011;28351;51.480;5.706;2023-09-19T06:57:23;15.40;;;3.40;;
42714;SDS011;28351;51.480;5.706;2023-09-19T06:59:49;15.35;;;2.95;;
42714;SDS011;28351;51.480;5.706;2023-09-19T07:02:15;12.63;;;2.70;;
42714;SDS011;28351;51.480;5.706;2023-09-19T07:04:41;15.32;;;3.05;;
42714;SDS011;28351;51.480;5.706;2023-09-19T07:07:06;14.25;;;2.75;;
42714;SDS011;28351;51.480;5.706;2023-09-19T07:09:34;17.75;;;3.00;;
42714;SDS011;28351;51.480;5.706;2023-09-19T07:11:59;15.15;;;3.13;;
42714;SDS011;28351;51.480;5.706;2023-09-19T07:14:25;14.60;;;2.85;;
42714;SDS011;28351;51.480;5.706;2023-09-19T07:16:52;20.35;;;3.13;;
42714;SDS011;28351;51.480;5.706;2023-09-19T07:19:17;17.83;;;2.90;;
42714;SDS011;28351;51.480;5.706;2023-09-19T07:21:43;17.38;;;3.00;;
42714;SDS011;28351;51.480;5.706;2023-09-19T07:24:09;17.52;;;3.90;;
42714;SDS011;28351;51.480;5.706;2023-09-19T07:26:34;17.58;;;3.55;;
42714;SDS011;28351;51.480;5.706;2023-09-19T07:29:00;15.75;;;3.22;;
42714;SDS011;28351;51.480;5.706;2023-09-19T07:31:29;10.55;;;2.42;;
42714;SDS011;28351;51.480;5.706;2023-09-19T07:33:56;14.35;;;2.88;;
42714;SDS011;28351;51.480;5.706;2023-09-19T07:36:21;14.90;;;3.00;;
42714;SDS011;28351;51.480;5.706;2023-09-19T07:38:49;18.95;;;2.53;;
42714;SDS011;28351;51.480;5.706;2023-09-19T07:41:15;16.92;;;3.13;;
42714;SDS011;28351;51.480;5.706;2023-09-19T07:43:40;15.93;;;3.05;;
42714;SDS011;28351;51.480;5.706;2023-09-19T07:46:06;16.05;;;2.80;;
42714;SDS011;28351;51.480;5.706;2023-09-19T07:48:34;18.08;;;3.00;;
42714;SDS011;28351;51.480;5.706;2023-09-19T07:51:01;16.48;;;2.95;;
42714;SDS011;28351;51.480;5.706;2023-09-19T07:53:31;12.13;;;2.72;;
42714;SDS011;28351;51.480;5.706;2023-09-19T07:56:03;14.95;;;2.78;;
42714;SDS011;28351;51.480;5.706;2023-09-19T07:58:33;23.88;;;3.38;;
42714;SDS011;28351;51.480;5.706;2023-09-19T08:01:05;15.88;;;2.67;;
42714;SDS011;28351;51.480;5.706;2023-09-19T08:03:32;21.40;;;3.17;;
42714;SDS011;28351;51.480;5.706;2023-09-19T08:05:59;17.13;;;2.65;;
42714;SDS011;28351;51.480;5.706;2023-09-19T08:08:26;16.50;;;2.92;;
42714;SDS011;28351;51.480;5.706;2023-09-19T08:10:52;12.60;;;2.72;;
42714;SDS011;28351;51.480;5.706;2023-09-19T08:16:35;16.73;;;3.10;;
42714;SDS011;28351;51.480;5.706;2023-09-19T08:22:33;17.63;;;2.70;;
42714;SDS011;28351;51.480;5.706;2023-09-19T08:28:21;20.27;;;2.80;;
42714;SDS011;28351;51.480;5.706;2023-09-19T08:30:50;11.30;;;2.50;;
42714;SDS011;28351;51.480;5.706;2023-09-19T08:33:19;14.25;;;2.53;;
42714;SDS011;28351;51.480;5.706;2023-09-19T08:35:50;17.10;;;2.75;;
42714;SDS011;28351;51.480;5.706;2023-09-19T08:38:16;16.30;;;3.22;;
42714;SDS011;28351;51.480;5.706;2023-09-19T08:40:42;17.70;;;3.20;;
42714;SDS011;28351;51.480;5.706;2023-09-19T08:43:08;16.00;;;2.75;;
42714;SDS011;28351;51.480;5.706;2023-09-19T08:45:34;15.88;;;2.85;;
42714;SDS011;28351;51.480;5.706;2023-09-19T08:51:02;16.25;;;2.97;;
42714;SDS011;28351;51.480;5.706;2023-09-19T08:56:14;15.45;;;2.70;;
42714;SDS011;28351;51.480;5.706;2023-09-19T08:58:44;15.75;;;2.50;;
42714;SDS011;28351;51.480;5.706;2023-09-19T09:01:20;12.73;;;2.67;;
42714;SDS011;28351;51.480;5.706;2023-09-19T09:03:55;14.55;;;2.67;;
42714;SDS011;28351;51.480;5.706;2023-09-19T09:06:22;17.35;;;3.30;;
42714;SDS011;28351;51.480;5.706;2023-09-19T09:08:52;13.60;;;2.70;;
42714;SDS011;28351;51.480;5.706;2023-09-19T09:11:18;23.70;;;3.00;;
42714;SDS011;28351;51.480;5.706;2023-09-19T09:13:44;15.98;;;3.13;;
42714;SDS011;28351;51.480;5.706;2023-09-19T09:16:11;14.00;;;3.00;;
42714;SDS011;28351;51.480;5.706;2023-09-19T09:18:37;17.25;;;2.88;;
42714;SDS011;28351;51.480;5.706;2023-09-19T09:21:03;17.35;;;2.70;;
42714;SDS011;28351;51.480;5.706;2023-09-19T09:23:29;21.85;;;2.47;;
42714;SDS011;28351;51.480;5.706;2023-09-19T09:25:57;18.90;;;3.15;;
42714;SDS011;28351;51.480;5.706;2023-09-19T09:28:28;13.40;;;2.67;;
42714;SDS011;28351;51.480;5.706;2023-09-19T09:30:55;13.40;;;2.88;;
42714;SDS011;28351;51.480;5.706;2023-09-19T09:33:23;14.40;;;3.20;;
42714;SDS011;28351;51.480;5.706;2023-09-19T09:35:56;16.35;;;2.92;;
42714;SDS011;28351;51.480;5.706;2023-09-19T09:38:29;15.13;;;2.45;;
42714;SDS011;28351;51.480;5.706;2023-09-19T09:41:08;18.25;;;3.00;;
42714;SDS011;28351;51.480;5.706;2023-09-19T09:46:12;20.38;;;2.95;;
42714;SDS011;28351;51.480;5.706;2023-09-19T09:48:46;13.98;;;3.10;;
42714;SDS011;28351;51.480;5.706;2023-09-19T09:51:50;17.70;;;3.45;;
42714;SDS011;28351;51.480;5.706;2023-09-19T09:54:24;13.68;;;2.47;;
42714;SDS011;28351;51.480;5.706;2023-09-19T09:59:51;13.93;;;2.67;;
42714;SDS011;28351;51.480;5.706;2023-09-19T10:02:27;13.93;;;3.17;;
42714;SDS011;28351;51.480;5.706;2023-09-19T10:04:57;14.98;;;3.42;;
42714;SDS011;28351;51.480;5.706;2023-09-19T10:07:40;17.92;;;3.10;;
42714;SDS011;28351;51.480;5.706;2023-09-19T10:10:11;9.50;;;2.47;;
42714;SDS011;28351;51.480;5.706;2023-09-19T10:12:49;13.95;;;2.63;;
42714;SDS011;28351;51.480;5.706;2023-09-19T10:15:18;14.15;;;2.60;;
42714;SDS011;28351;51.480;5.706;2023-09-19T10:17:50;15.98;;;3.47;;
42714;SDS011;28351;51.480;5.706;2023-09-19T10:20:21;10.93;;;2.47;;
42714;SDS011;28351;51.480;5.706;2023-09-19T10:23:09;16.67;;;2.67;;
42714;SDS011;28351;51.480;5.706;2023-09-19T10:25:42;12.30;;;2.53;;
42714;SDS011;28351;51.480;5.706;2023-09-19T10:28:12;11.35;;;2.80;;
42714;SDS011;28351;51.480;5.706;2023-09-19T10:30:42;13.85;;;2.60;;
42714;SDS011;28351;51.480;5.706;2023-09-19T10:33:12;14.73;;;3.05;;
42714;SDS011;28351;51.480;5.706;2023-09-19T10:35:44;15.35;;;2.65;;
42714;SDS011;28351;51.480;5.706;2023-09-19T10:38:11;11.30;;;2.50;;
42714;SDS011;28351;51.480;5.706;2023-09-19T10:40:38;12.18;;;3.10;;
42714;SDS011;28351;51.480;5.706;2023-09-19T10:43:20;8.98;;;2.35;;
42714;SDS011;28351;51.480;5.706;2023-09-19T10:45:49;9.85;;;2.17;;
42714;SDS011;28351;51.480;5.706;2023-09-19T10:48:17;13.57;;;3.08;;
42714;SDS011;28351;51.480;5.706;2023-09-19T10:51:09;18.40;;;2.30;;
42714;SDS011;28351;51.480;5.706;2023-09-19T10:53:51;9.50;;;2.17;;
42714;SDS011;28351;51.480;5.706;2023-09-19T10:56:29;15.38;;;2.85;;
42714;SDS011;28351;51.480;5.706;2023-09-19T10:59:18;10.10;;;2.50;;
42714;SDS011;28351;51.480;5.706;2023-09-19T11:04:34;18.05;;;2.78;;
42714;SDS011;28351;51.480;5.706;2023-09-19T11:07:13;10.07;;;2.63;;
42714;SDS011;28351;51.480;5.706;2023-09-19T11:09:50;10.98;;;2.75;;
42714;SDS011;28351;51.480;5.706;2023-09-19T11:15:01;11.23;;;3.08;;
42714;SDS011;28351;51.480;5.706;2023-09-19T11:17:36;13.10;;;2.55;;
42714;SDS011;28351;51.480;5.706;2023-09-19T11:23:23;10.07;;;2.20;;
42714;SDS011;28351;51.480;5.706;2023-09-19T11:30:42;8.63;;;2.00;;
42714;SDS011;28351;51.480;5.706;2023-09-19T11:36:04;10.10;;;2.20;;
42714;SDS011;28351;51.480;5.706;2023-09-19T11:41:36;13.73;;;2.88;;
42714;SDS011;28351;51.480;5.706;2023-09-19T11:49:30;8.63;;;2.08;;
42714;SDS011;28351;51.480;5.706;2023-09-19T11:51:58;7.90;;;1.48;;
42714;SDS011;28351;51.480;5.706;2023-09-19T11:54:31;11.60;;;2.10;;
42714;SDS011;28351;51.480;5.706;2023-09-19T11:56:57;8.52;;;1.63;;
42714;SDS011;28351;51.480;5.706;2023-09-19T11:59:25;9.80;;;1.90;;
42714;SDS011;28351;51.480;5.706;2023-09-19T12:01:56;5.88;;;1.75;;
42714;SDS011;28351;51.480;5.706;2023-09-19T12:04:44;6.00;;;1.60;;
42714;SDS011;28351;51.480;5.706;2023-09-19T12:07:16;5.18;;;1.42;;
42714;SDS011;28351;51.480;5.706;2023-09-19T12:12:25;8.60;;;1.67;;
42714;SDS011;28351;51.480;5.706;2023-09-19T12:15:00;6.65;;;1.73;;
42714;SDS011;28351;51.480;5.706;2023-09-19T12:17:37;8.87;;;1.70;;
42714;SDS011;28351;51.480;5.706;2023-09-19T12:20:04;6.80;;;1.35;;
42714;SDS011;28351;51.480;5.706;2023-09-19T12:22:43;5.13;;;1.48;;
42714;SDS011;28351;51.480;5.706;2023-09-19T12:25:11;5.00;;;1.48;;
42714;SDS011;28351;51.480;5.706;2023-09-19T12:27:48;6.80;;;1.35;;
42714;SDS011;28351;51.480;5.706;2023-09-19T12:30:18;9.30;;;1.25;;
42714;SDS011;28351;51.480;5.706;2023-09-19T12:32:46;5.20;;;1.40;;
42714;SDS011;28351;51.480;5.706;2023-09-19T12:35:31;8.77;;;1.30;;
42714;SDS011;28351;51.480;5.706;2023-09-19T12:38:00;8.07;;;1.60;;
42714;SDS011;28351;51.480;5.706;2023-09-19T12:40:28;7.00;;;1.65;;
42714;SDS011;28351;51.480;5.706;2023-09-19T12:42:57;7.03;;;1.15;;
42714;SDS011;28351;51.480;5.706;2023-09-19T12:45:25;7.47;;;1.67;;
42714;SDS011;28351;51.480;5.706;2023-09-19T12:53:38;8.52;;;1.15;;
42714;SDS011;28351;51.480;5.706;2023-09-19T12:56:15;8.63;;;1.40;;
42714;SDS011;28351;51.480;5.706;2023-09-19T12:58:55;5.45;;;1.20;;
42714;SDS011;28351;51.480;5.706;2023-09-19T13:01:23;8.70;;;1.10;;
42714;SDS011;28351;51.480;5.706;2023-09-19T13:04:11;3.95;;;1.13;;
42714;SDS011;28351;51.480;5.706;2023-09-19T13:06:47;4.35;;;1.13;;
42714;SDS011;28351;51.480;5.706;2023-09-19T13:09:15;7.88;;;1.30;;
42714;SDS011;28351;51.480;5.706;2023-09-19T13:11:42;3.85;;;1.05;;
42714;SDS011;28351;51.480;5.706;2023-09-19T13:14:13;6.55;;;1.20;;
42714;SDS011;28351;51.480;5.706;2023-09-19T13:25:15;3.10;;;0.93;;
42714;SDS011;28351;51.480;5.706;2023-09-19T13:30:20;6.13;;;1.27;;
42714;SDS011;28351;51.480;5.706;2023-09-19T13:32:50;5.22;;;1.10;;
42714;SDS011;28351;51.480;5.706;2023-09-19T13:35:16;5.93;;;1.17;;
42714;SDS011;28351;51.480;5.706;2023-09-19T13:37:42;7.78;;;1.00;;
42714;SDS011;28351;51.480;5.706;2023-09-19T13:40:12;4.13;;;1.17;;
42714;SDS011;28351;51.480;5.706;2023-09-19T13:42:39;2.97;;;0.90;;
42714;SDS011;28351;51.480;5.706;2023-09-19T13:45:06;4.35;;;0.90;;
42714;SDS011;28351;51.480;5.706;2023-09-19T13:47:32;6.55;;;0.90;;
42714;SDS011;28351;51.480;5.706;2023-09-19T13:49:59;4.30;;;0.95;;
42714;SDS011;28351;51.480;5.706;2023-09-19T13:52:29;5.10;;;1.20;;
42714;SDS011;28351;51.480;5.706;2023-09-19T13:54:58;5.25;;;0.98;;
42714;SDS011;28351;51.480;5.706;2023-09-19T13:57:26;6.55;;;1.10;;
42714;SDS011;28351;51.480;5.706;2023-09-19T13:59:55;5.28;;;1.13;;
42714;SDS011;28351;51.480;5.706;2023-09-19T14:02:21;4.22;;;1.33;;
42714;SDS011;28351;51.480;5.706;2023-09-19T14:04:51;4.72;;;0.98;;
42714;SDS011;28351;51.480;5.706;2023-09-19T14:07:17;4.10;;;1.08;;
42714;SDS011;28351;51.480;5.706;2023-09-19T14:09:45;4.10;;;1.20;;
42714;SDS011;28351;51.480;5.706;2023-09-19T14:12:11;3.53;;;1.10;;
42714;SDS011;28351;51.480;5.706;2023-09-19T14:14:37;4.18;;;1.23;;
42714;SDS011;28351;51.480;5.706;2023-09-19T14:17:03;5.35;;;1.00;;
42714;SDS011;28351;51.480;5.706;2023-09-19T14:19:29;3.42;;;1.05;;
42714;SDS011;28351;51.480;5.706;2023-09-19T14:21:55;4.40;;;1.02;;
42714;SDS011;28351;51.480;5.706;2023-09-19T14:24:21;3.70;;;1.00;;
42714;SDS011;28351;51.480;5.706;2023-09-19T14:26:48;6.47;;;1.17;;
42714;SDS011;28351;51.480;5.706;2023-09-19T14:29:14;5.50;;;1.20;;
42714;SDS011;28351;51.480;5.706;2023-09-19T14:31:40;5.88;;;1.40;;
42714;SDS011;28351;51.480;5.706;2023-09-19T14:34:07;4.35;;;1.33;;
42714;SDS011;28351;51.480;5.706;2023-09-19T14:36:35;6.80;;;1.00;;
42714;SDS011;28351;51.480;5.706;2023-09-19T14:39:01;8.40;;;1.25;;
42714;SDS011;28351;51.480;5.706;2023-09-19T14:41:27;3.20;;;0.85;;
42714;SDS011;28351;51.480;5.706;2023-09-19T14:43:53;5.88;;;1.30;;
42714;SDS011;28351;51.480;5.706;2023-09-19T14:46:20;6.45;;;1.08;;
42714;SDS011;28351;51.480;5.706;2023-09-19T14:48:46;7.82;;;1.40;;
42714;SDS011;28351;51.480;5.706;2023-09-19T14:51:16;5.20;;;1.20;;
42714;SDS011;28351;51.480;5.706;2023-09-19T14:53:43;3.28;;;1.15;;
42714;SDS011;28351;51.480;5.706;2023-09-19T14:56:10;5.00;;;1.05;;
42714;SDS011;28351;51.480;5.706;2023-09-19T14:58:36;6.15;;;1.33;;
42714;SDS011;28351;51.480;5.706;2023-09-19T15:01:05;3.75;;;1.15;;
42714;SDS011;28351;51.480;5.706;2023-09-19T15:03:32;6.78;;;1.00;;
42714;SDS011;28351;51.480;5.706;2023-09-19T15:06:04;2.95;;;0.95;;
42714;SDS011;28351;51.480;5.706;2023-09-19T15:08:31;6.78;;;0.98;;
42714;SDS011;28351;51.480;5.706;2023-09-19T15:10:59;8.13;;;1.10;;
42714;SDS011;28351;51.480;5.706;2023-09-19T15:13:29;4.00;;;1.20;;
42714;SDS011;28351;51.480;5.706;2023-09-19T15:16:01;6.03;;;1.35;;
42714;SDS011;28351;51.480;5.706;2023-09-19T15:18:34;5.15;;;1.30;;
42714;SDS011;28351;51.480;5.706;2023-09-19T15:21:03;7.32;;;1.15;;
42714;SDS011;28351;51.480;5.706;2023-09-19T15:23:30;6.40;;;1.55;;
42714;SDS011;28351;51.480;5.706;2023-09-19T15:25:57;6.90;;;1.58;;
42714;SDS011;28351;51.480;5.706;2023-09-19T15:28:23;8.10;;;1.17;;
42714;SDS011;28351;51.480;5.706;2023-09-19T15:30:49;5.53;;;1.50;;
42714;SDS011;28351;51.480;5.706;2023-09-19T15:33:15;4.50;;;1.10;;
42714;SDS011;28351;51.480;5.706;2023-09-19T15:35:41;5.88;;;1.65;;
42714;SDS011;28351;51.480;5.706;2023-09-19T15:38:07;13.98;;;2.97;;
42714;SDS011;28351;51.480;5.706;2023-09-19T15:40:33;6.97;;;1.60;;
42714;SDS011;28351;51.480;5.706;2023-09-19T15:42:59;8.25;;;1.88;;
42714;SDS011;28351;51.480;5.706;2023-09-19T15:45:25;4.95;;;1.35;;
42714;SDS011;28351;51.480;5.706;2023-09-19T15:47:51;6.45;;;1.80;;
42714;SDS011;28351;51.480;5.706;2023-09-19T15:50:18;4.55;;;1.17;;
42714;SDS011;28351;51.480;5.706;2023-09-19T15:52:43;4.85;;;1.63;;
42714;SDS011;28351;51.480;5.706;2023-09-19T15:55:09;3.58;;;1.10;;
42714;SDS011;28351;51.480;5.706;2023-09-19T15:57:36;8.73;;;1.67;;
42714;SDS011;28351;51.480;5.706;2023-09-19T16:00:04;4.75;;;1.45;;
42714;SDS011;28351;51.480;5.706;2023-09-19T16:02:35;6.75;;;1.33;;
42714;SDS011;28351;51.480;5.706;2023-09-19T16:05:01;7.15;;;1.50;;
42714;SDS011;28351;51.480;5.706;2023-09-19T16:07:31;5.82;;;1.20;;
42714;SDS011;28351;51.480;5.706;2023-09-19T16:09:58;5.63;;;1.45;;
42714;SDS011;28351;51.480;5.706;2023-09-19T16:12:26;4.63;;;1.40;;
42714;SDS011;28351;51.480;5.706;2023-09-19T16:14:51;8.13;;;1.50;;
42714;SDS011;28351;51.480;5.706;2023-09-19T16:17:17;3.80;;;1.20;;